Time;durP1;ratioP1;P1;durP2;ratioP2;P2;SDS_P1;SDS_P2;PMS_P1;PMS_P2;Temp;Humidity;BMP_temperature;BMP_pressure;BME280_temperature;BME280_humidity;BME280_pressure;Samples;Min_cycle;Max_cycle;Signal;HPM_P1;HPM_P2
2024/04/22 00:00:39;;;;;;;32.03;29.38;;;;;;;-143.39;100.00;64013.03;5382682;26;20000;-84
2024/04/22 00:03:05;;;;;;;28.13;26.13;;;;;;;-143.39;100.00;64013.03;5380779;26;20012;-83
2024/04/22 00:05:42;;;;;;;26.40;24.50;;;;;;;-143.39;100.00;64013.03;5382978;26;20015;-83
2024/04/22 00:08:08;;;;;;;26.77;24.77;;;;;;;-143.39;100.00;64013.03;5380291;26;20530;-83
2024/04/22 00:10:37;;;;;;;26.80;24.80;;;;;;;-143.39;100.00;64013.03;5382609;26;20058;-83
2024/04/22 00:13:04;;;;;;;26.98;25.00;;;;;;;-143.39;100.00;64013.03;5381317;26;20023;-83
2024/04/22 00:15:32;;;;;;;27.15;25.15;;;;;;;-143.39;100.00;64013.03;5382366;26;20019;-84
2024/04/22 00:17:59;;;;;;;28.60;26.60;;;;;;;-143.39;100.00;64013.03;5379941;26;20096;-80
2024/04/22 00:20:30;;;;;;;25.58;23.67;;;;;;;-143.39;100.00;64013.03;5381673;26;20015;-80
2024/04/22 00:22:59;;;;;;;26.23;24.33;;;;;;;-143.39;100.00;64013.03;5378892;26;20039;-80
2024/04/22 00:25:28;;;;;;;29.15;26.73;;;;;;;-143.39;100.00;64013.03;5381864;26;20290;-80
2024/04/22 00:27:54;;;;;;;26.50;24.60;;;;;;;-143.39;100.00;64013.03;5379943;26;20925;-80
2024/04/22 00:30:23;;;;;;;30.60;28.45;;;;;;;-143.39;100.00;64013.03;5381377;26;20079;-80
2024/04/22 00:32:49;;;;;;;27.30;25.35;;;;;;;-143.39;100.00;64013.03;5379561;26;20055;-80
2024/04/22 00:35:19;;;;;;;26.45;24.55;;;;;;;-143.39;100.00;64013.03;5381533;26;20010;-80
2024/04/22 00:37:55;;;;;;;27.45;25.45;;;;;;;-143.39;100.00;64013.03;5379383;26;20048;-83
2024/04/22 00:40:36;;;;;;;28.17;26.08;;;;;;;-143.39;100.00;64013.03;5381927;26;20016;-84
2024/04/22 00:43:06;;;;;;;28.13;25.55;;;;;;;-143.39;100.00;64013.03;5380298;26;20512;-84
2024/04/22 00:45:38;;;;;;;27.02;25.13;;;;;;;-143.39;100.00;64013.03;5383345;26;20344;-83
2024/04/22 00:48:18;;;;;;;27.90;25.85;;;;;;;-143.39;100.00;64013.03;5380419;26;20332;-83
2024/04/22 00:50:48;;;;;;;27.80;25.80;;;;;;;-143.39;100.00;64013.03;5382904;26;20011;-84
2024/04/22 00:53:16;;;;;;;27.08;25.08;;;;;;;-143.39;100.00;64013.03;5380371;26;20086;-84
2024/04/22 00:55:48;;;;;;;30.05;27.95;;;;;;;-143.39;100.00;64013.03;5382739;26;20004;-84
2024/04/22 00:58:15;;;;;;;;;;;;;;;-143.39;100.00;64013.03;5380662;26;20552;-80
2024/04/22 01:00:47;;;;;;;28.63;26.42;;;;;;;-143.39;100.00;64013.03;5381070;26;20416;-80
2024/04/22 01:03:14;;;;;;;28.50;26.50;;;;;;;-143.39;100.00;64013.03;5378890;26;20004;-80
2024/04/22 01:05:43;;;;;;;28.75;26.65;;;;;;;-143.39;100.00;64013.03;5380714;26;20005;-80
2024/04/22 01:08:09;;;;;;;29.80;27.60;;;;;;;-143.39;100.00;64013.03;5379178;26;20428;-80
2024/04/22 01:10:38;;;;;;;31.42;29.20;;;;;;;-143.39;100.00;64013.03;5380956;26;20402;-80
2024/04/22 01:13:07;;;;;;;28.05;26.05;;;;;;;-143.39;100.00;64013.03;5378437;26;20020;-84
2024/04/22 01:15:36;;;;;;;31.02;28.65;;;;;;;-143.39;100.00;64013.03;5380945;26;20526;-83
2024/04/22 01:18:03;;;;;;;33.97;31.38;;;;;;;-143.39;100.00;64013.03;5379019;26;20049;-83
2024/04/22 01:20:32;;;;;;;30.50;28.35;;;;;;;-143.39;100.00;64013.03;5380137;26;20000;-83
2024/04/22 01:23:01;;;;;;;30.05;27.85;;;;;;;-143.39;100.00;64013.03;5378094;26;20012;-80
2024/04/22 01:25:38;;;;;;;29.20;27.10;;;;;;;-143.39;100.00;64013.03;5380514;26;20007;-84
2024/04/22 01:28:05;;;;;;;30.23;28.13;;;;;;;-143.39;100.00;64013.03;5379386;26;20000;-84
2024/04/22 01:30:34;;;;;;;31.05;28.75;;;;;;;-143.39;100.00;64013.03;5381479;26;20462;-83
2024/04/22 01:33:00;;;;;;;33.80;31.45;;;;;;;-143.39;100.00;64013.03;5379094;26;20721;-83
2024/04/22 01:35:29;;;;;;;31.95;29.65;;;;;;;-143.39;100.00;64013.03;5380121;26;20011;-83
2024/04/22 01:37:56;;;;;;;31.50;29.10;;;;;;;-143.39;100.00;64013.03;5379193;26;20077;-83
2024/04/22 01:40:39;;;;;;;33.20;30.88;;;;;;;-143.39;100.00;64013.03;5380786;26;20000;-84
2024/04/22 01:43:05;;;;;;;;;;;;;;;-143.39;100.00;64013.03;5379706;26;20077;-83
2024/04/22 01:45:38;;;;;;;33.90;31.40;;;;;;;-143.39;100.00;64013.03;5380744;26;19937;-84
2024/04/22 01:48:07;;;;;;;34.47;32.08;;;;;;;-143.39;100.00;64013.03;5378456;26;20077;-83
2024/04/22 01:50:38;;;;;;;45.58;42.38;;;;;;;-143.39;100.00;64013.03;5380492;26;20008;-80
2024/04/22 01:53:04;;;;;;;36.77;34.17;;;;;;;-143.39;100.00;64013.03;5377679;26;20074;-80
2024/04/22 01:55:33;;;;;;;33.63;31.33;;;;;;;-143.39;100.00;64013.03;5379369;26;20033;-80
2024/04/22 01:58:02;;;;;;;33.42;31.13;;;;;;;-143.39;100.00;64013.03;5377954;26;20046;-81
2024/04/22 02:00:31;;;;;;;32.50;30.25;;;;;;;-143.39;100.00;64013.03;5380014;26;20004;-80
2024/04/22 02:02:57;;;;;;;29.30;27.20;;;;;;;-143.39;100.00;64013.03;5377252;26;20012;-84
2024/04/22 02:05:26;;;;;;;32.38;30.08;;;;;;;-143.39;100.00;64013.03;5380422;26;20837;-83
2024/04/22 02:07:52;;;;;;;31.20;29.00;;;;;;;-143.39;100.00;64013.03;5377359;26;20052;-83
2024/04/22 02:10:21;;;;;;;31.83;29.63;;;;;;;-143.39;100.00;64013.03;5379480;26;20012;-83
2024/04/22 02:12:47;;;;;;;32.60;30.40;;;;;;;-143.39;100.00;64013.03;5377956;26;20014;-80
2024/04/22 02:15:19;;;;;;;33.35;31.15;;;;;;;-143.39;100.00;64013.03;5379699;26;20000;-80
2024/04/22 02:17:45;;;;;;;31.02;28.92;;;;;;;-143.39;100.00;64013.03;5381591;26;20835;-80
2024/04/22 02:20:14;;;;;;;30.27;28.17;;;;;;;-143.39;100.00;64013.03;5384032;26;20037;-80
2024/04/22 02:22:43;;;;;;;34.33;31.67;;;;;;;-143.39;100.00;64013.03;5382099;26;20052;-83
2024/04/22 02:25:09;;;;;;;37.72;35.10;;;;;;;-143.39;100.00;64013.03;5382751;26;20018;-83
2024/04/22 02:27:47;;;;;;;31.92;29.70;;;;;;;-143.39;100.00;64013.03;5384163;26;20015;-84
2024/04/22 02:30:16;;;;;;;33.38;31.08;;;;;;;-143.39;100.00;64013.03;5379625;26;20915;-83
2024/04/22 02:32:45;;;;;;;31.73;29.52;;;;;;;-143.39;100.00;64013.03;5383894;26;20023;-84
2024/04/22 02:35:24;;;;;;;28.98;26.98;;;;;;;-143.39;100.00;64013.03;5382050;26;20005;-84
2024/04/22 02:37:53;;;;;;;35.67;33.22;;;;;;;-143.39;100.00;64013.03;5384999;26;20078;-84
2024/04/22 02:40:29;;;;;;;29.52;27.42;;;;;;;-143.39;100.00;64013.03;5382229;26;20348;-84
2024/04/22 02:42:58;;;;;;;30.10;28.00;;;;;;;-143.39;100.00;64013.03;5384071;26;20000;-84
2024/04/22 02:45:27;;;;;;;28.25;26.23;;;;;;;-143.39;100.00;64013.03;5382755;26;20000;-85
2024/04/22 02:47:56;;;;;;;31.83;29.52;;;;;;;-143.39;100.00;64013.03;5385355;26;20000;-85
2024/04/22 02:50:22;;;;;;;31.77;29.48;;;;;;;-143.39;100.00;64013.03;5381848;26;20528;-84
2024/04/22 02:52:51;;;;;;;33.70;31.30;;;;;;;-143.39;100.00;64013.03;5384218;26;20000;-83
2024/04/22 02:55:28;;;;;;;33.63;31.23;;;;;;;-143.39;100.00;64013.03;5381892;26;20000;-84
2024/04/22 02:58:00;;;;;;;32.75;30.35;;;;;;;-143.39;100.00;64013.03;5384125;26;20000;-84
2024/04/22 03:00:29;;;;;;;31.63;29.33;;;;;;;-143.39;100.00;64013.03;5381143;26;20335;-83
2024/04/22 03:02:58;;;;;;;32.00;29.60;;;;;;;-143.39;100.00;64013.03;5383987;26;20115;-83
2024/04/22 03:05:24;;;;;;;29.40;27.30;;;;;;;-143.39;100.00;64013.03;5380899;26;19996;-83
2024/04/22 03:07:53;;;;;;;33.22;30.83;;;;;;;-143.39;100.00;64013.03;5384129;26;20663;-83
2024/04/22 03:10:20;;;;;;;35.72;33.03;;;;;;;-143.39;100.00;64013.03;5381709;26;20061;-82
2024/04/22 03:12:49;;;;;;;33.75;31.15;;;;;;;-143.39;100.00;64013.03;5383133;26;20348;-80
2024/04/22 03:15:15;;;;;;;33.38;30.88;;;;;;;-143.39;100.00;64013.03;5379905;26;20425;-81
2024/04/22 03:17:51;;;;;;;35.72;31.80;;;;;;;-143.39;100.00;64013.03;5382254;26;20004;-80
2024/04/22 03:20:17;;;;;;;36.25;33.55;;;;;;;-143.39;100.00;64013.03;5379562;26;20000;-80
2024/04/22 03:22:46;;;;;;;32.67;30.17;;;;;;;-143.39;100.00;64013.03;5381830;26;20015;-80
2024/04/22 03:25:12;;;;;;;41.13;38.33;;;;;;;-143.39;100.00;64013.03;5379027;26;20516;-82
2024/04/22 03:27:41;;;;;;;45.53;42.25;;;;;;;-143.39;100.00;64013.03;5382394;26;20425;-83
2024/04/22 03:30:08;;;;;;;56.20;51.40;;;;;;;-143.39;100.00;64013.03;5380072;26;20004;-79
2024/04/22 03:32:37;;;;;;;53.50;48.50;;;;;;;-143.39;100.00;64013.03;5381719;26;20001;-80
2024/04/22 03:35:06;;;;;;;31.40;28.67;;;;;;;-143.39;100.00;64013.03;5379873;26;20073;-83
2024/04/22 03:37:38;;;;;;;29.70;27.58;;;;;;;-143.39;100.00;64013.03;5383026;26;20004;-83
2024/04/22 03:40:08;;;;;;;32.08;29.83;;;;;;;-143.39;100.00;64013.03;5380574;26;20032;-83
2024/04/22 03:42:36;;;;;;;48.78;45.67;;;;;;;-143.39;100.00;64013.03;5380834;26;20016;-83
2024/04/22 03:45:03;;;;;;;33.58;30.98;;;;;;;-143.39;100.00;64013.03;5381126;26;20000;-83
2024/04/22 03:50:19;;;;;;;32.05;29.65;;;;;;;-143.39;100.00;64013.03;5383038;26;20035;-83
2024/04/22 03:52:48;;;;;;;32.65;30.35;;;;;;;-143.39;100.00;64013.03;5381077;26;20015;-83
2024/04/22 03:55:17;;;;;;;35.50;33.10;;;;;;;-143.39;100.00;64013.03;5380996;26;20000;-80
2024/04/22 03:57:46;;;;;;;31.50;29.30;;;;;;;-143.39;100.00;64013.03;5369788;26;20001;-80
2024/04/22 04:00:15;;;;;;;30.05;28.05;;;;;;;-143.39;100.00;64013.03;5351360;26;20333;-80
2024/04/22 04:02:41;;;;;;;26.60;24.80;;;;;;;-143.39;100.00;64013.03;5379791;26;20964;-81
2024/04/22 04:05:10;;;;;;;30.05;28.00;;;;;;;-143.39;100.00;64013.03;5382183;26;20081;-80
2024/04/22 04:07:39;;;;;;;32.50;30.10;;;;;;;-143.39;100.00;64013.03;5379760;26;20095;-81
2024/04/22 04:10:09;;;;;;;38.30;35.90;;;;;;;-143.39;100.00;64013.03;5381225;26;20015;-80
2024/04/22 04:12:41;;;;;;;33.38;31.27;;;;;;;-143.39;100.00;64013.03;5365857;26;20440;-81
2024/04/22 04:15:11;;;;;;;33.30;31.20;;;;;;;-143.39;100.00;64013.03;5381307;26;20000;-80
2024/04/22 04:17:38;;;;;;;33.58;31.38;;;;;;;-143.39;100.00;64013.03;5380158;26;20001;-80
2024/04/22 04:20:07;;;;;;;37.10;34.70;;;;;;;-143.39;100.00;64013.03;5382608;26;20027;-80
2024/04/22 04:22:34;;;;;;;34.95;32.65;;;;;;;-143.39;100.00;64013.03;5359557;26;19996;-81
2024/04/22 04:25:05;;;;;;;35.67;33.47;;;;;;;-143.39;100.00;64013.03;5381506;26;20041;-80
2024/04/22 04:27:31;;;;;;;33.10;30.92;;;;;;;-143.39;100.00;64013.03;5374462;26;20012;-81
2024/04/22 04:30:00;;;;;;;35.25;33.08;;;;;;;-143.39;100.00;64013.03;5354374;26;20001;-80
2024/04/22 04:32:30;;;;;;;34.92;32.63;;;;;;;-143.39;100.00;64013.03;5378655;26;20008;-81
2024/04/22 04:35:01;;;;;;;35.28;33.08;;;;;;;-143.39;100.00;64013.03;5373545;26;19997;-80
2024/04/22 04:37:29;;;;;;;36.13;33.83;;;;;;;-143.39;100.00;64013.03;5368636;26;20448;-81
2024/04/22 04:39:58;;;;;;;34.47;32.25;;;;;;;-143.39;100.00;64013.03;5380207;26;20036;-81
2024/04/22 04:42:30;;;;;;;29.63;27.63;;;;;;;-143.39;100.00;64013.03;5378285;26;20462;-80
2024/04/22 04:44:56;;;;;;;33.93;31.73;;;;;;;-143.39;100.00;64013.03;5379791;26;20039;-81
2024/04/22 04:47:25;;;;;;;33.65;31.55;;;;;;;-143.39;100.00;64013.03;5382360;26;20476;-80
2024/04/22 04:49:51;;;;;;;29.30;27.40;;;;;;;-143.39;100.00;64013.03;5372092;26;20039;-80
2024/04/22 04:52:20;;;;;;;29.73;27.83;;;;;;;-143.39;100.00;64013.03;5379008;26;20330;-81
2024/04/22 04:54:46;;;;;;;29.73;27.88;;;;;;;-143.39;100.00;64013.03;5378125;26;20077;-81
2024/04/22 04:57:15;;;;;;;28.98;27.08;;;;;;;-143.39;100.00;64013.03;5379282;26;20004;-80
2024/04/22 04:59:44;;;;;;;28.25;26.45;;;;;;;-143.39;100.00;64013.03;5378466;26;20081;-80
2024/04/22 05:02:13;;;;;;;29.05;27.05;;;;;;;-143.39;100.00;64013.03;5378154;26;20474;-82
2024/04/22 05:04:39;;;;;;;29.33;27.35;;;;;;;-143.39;100.00;64013.03;5373552;26;20452;-82
2024/04/22 05:07:10;;;;;;;29.52;27.52;;;;;;;-143.39;100.00;64013.03;5381888;26;20081;-82
2024/04/22 05:09:36;;;;;;;30.50;28.40;;;;;;;-143.39;100.00;64013.03;5380311;26;20019;-82
2024/04/22 05:12:05;;;;;;;32.20;30.00;;;;;;;-143.39;100.00;64013.03;5383795;26;20015;-81
2024/04/22 05:14:31;;;;;;;33.20;30.88;;;;;;;-143.39;100.00;64013.03;5385734;26;20051;-82
2024/04/22 05:17:04;;;;;;;32.28;29.98;;;;;;;-143.39;100.00;64013.03;5384891;26;20541;-81
2024/04/22 05:19:30;;;;;;;;;;;;;;;-143.39;100.00;64013.03;5383978;26;20099;-84
2024/04/22 05:21:59;;;;;;;31.13;28.95;;;;;;;-143.39;100.00;64013.03;5380904;26;19933;-82
2024/04/22 05:24:25;;;;;;;33.80;31.40;;;;;;;-143.39;100.00;64013.03;5378176;26;20004;-82
2024/04/22 05:26:54;;;;;;;32.45;30.05;;;;;;;-143.39;100.00;64013.03;5386973;26;20004;-85
2024/04/22 05:29:21;;;;;;;29.83;27.73;;;;;;;-143.39;100.00;64013.03;5392233;26;20018;-85
2024/04/22 05:31:52;;;;;;;29.42;27.42;;;;;;;-143.39;100.00;64013.03;5382854;26;20000;-85
2024/04/22 05:37:12;;;;;;;30.05;27.95;;;;;;;-143.39;100.00;64013.03;5397087;26;20019;-86
2024/04/22 05:39:41;;;;;;;32.17;29.98;;;;;;;-143.39;100.00;64013.03;5382716;26;20008;-81
2024/04/22 05:42:10;;;;;;;30.20;28.10;;;;;;;-143.39;100.00;64013.03;5386281;26;20076;-81
2024/04/22 05:44:39;;;;;;;28.38;26.48;;;;;;;-143.39;100.00;64013.03;5389843;26;20012;-82
2024/04/22 05:47:12;;;;;;;30.75;28.65;;;;;;;-143.39;100.00;64013.03;5388198;26;20004;-84
2024/04/22 05:49:53;;;;;;;30.55;28.55;;;;;;;-143.39;100.00;64013.03;5389767;26;20589;-85
2024/04/22 05:52:22;;;;;;;28.55;26.60;;;;;;;-143.39;100.00;64013.03;5380753;26;20000;-82
2024/04/22 05:54:51;;;;;;;30.38;28.27;;;;;;;-143.39;100.00;64013.03;5381737;26;20020;-82
2024/04/22 05:57:19;;;;;;;31.90;29.80;;;;;;;-143.39;100.00;64013.03;5381033;26;20015;-82
2024/04/22 05:59:47;;;;;;;32.00;29.90;;;;;;;-143.39;100.00;64013.03;5384991;26;20015;-82
2024/04/22 06:02:14;;;;;;;34.45;31.70;;;;;;;-143.39;100.00;64013.03;5376361;26;20064;-82
2024/04/22 06:04:44;;;;;;;30.73;28.73;;;;;;;-143.39;100.00;64013.03;5384791;26;20010;-82
2024/04/22 06:07:15;;;;;;;28.00;26.13;;;;;;;-143.39;100.00;64013.03;5382073;26;20004;-81
2024/04/22 06:09:44;;;;;;;30.43;28.43;;;;;;;-143.39;100.00;64013.03;5349731;26;20001;-82
2024/04/22 06:12:10;;;;;;;35.03;32.72;;;;;;;-143.39;100.00;64013.03;5346844;26;20349;-82
2024/04/22 06:14:42;;;;;;;38.20;35.33;;;;;;;-143.39;100.00;64013.03;5348787;26;20028;-82
2024/04/22 06:17:09;;;;;;;39.15;37.05;;;;;;;-143.39;100.00;64013.03;5365246;26;20944;-82
2024/04/22 06:19:38;;;;;;;37.10;34.80;;;;;;;-143.39;100.00;64013.03;5384302;26;20360;-82
2024/04/22 06:22:04;;;;;;;37.38;35.17;;;;;;;-143.39;100.00;64013.03;5381389;26;20529;-82
2024/04/22 06:24:41;;;;;;;40.53;38.13;;;;;;;-143.39;100.00;64013.03;5382386;26;20000;-82
2024/04/22 06:27:09;;;;;;;35.40;33.00;;;;;;;-143.39;100.00;64013.03;5380496;26;20073;-81
2024/04/22 06:29:37;;;;;;;33.20;30.90;;;;;;;-143.39;100.00;64013.03;5382847;26;20735;-82
2024/04/22 06:32:04;;;;;;;32.53;30.40;;;;;;;-143.39;100.00;64013.03;5381031;26;20813;-83
2024/04/22 06:34:34;;;;;;;33.78;31.40;;;;;;;-143.39;100.00;64013.03;5383542;26;20015;-82
2024/04/22 06:37:00;;;;;;;34.67;32.47;;;;;;;-143.39;100.00;64013.03;5381308;26;20440;-82
2024/04/22 06:39:29;;;;;;;35.80;33.40;;;;;;;-143.39;100.00;64013.03;5383799;26;20000;-82
2024/04/22 06:41:58;;;;;;;34.85;32.55;;;;;;;-143.39;100.00;64013.03;5380326;26;20000;-81
2024/04/22 06:44:33;;;;;;;30.67;28.67;;;;;;;-143.39;100.00;64013.03;5382701;26;20012;-82
2024/04/22 06:46:59;;;;;;;32.78;30.58;;;;;;;-143.39;100.00;64013.03;5381547;26;20001;-82
2024/04/22 06:49:28;;;;;;;33.00;30.90;;;;;;;-143.39;100.00;64013.03;5383434;26;20041;-82
2024/04/22 06:52:00;;;;;;;30.77;28.77;;;;;;;-143.39;100.00;64013.03;5374403;26;20015;-82
2024/04/22 06:54:29;;;;;;;35.33;33.03;;;;;;;-143.39;100.00;64013.03;5382591;26;20015;-82
2024/04/22 06:56:58;;;;;;;30.75;28.77;;;;;;;-143.39;100.00;64013.03;5380845;26;20077;-82
2024/04/22 06:59:26;;;;;;;32.92;30.77;;;;;;;-143.39;100.00;64013.03;5383835;26;20023;-82
2024/04/22 07:01:53;;;;;;;32.55;30.55;;;;;;;-143.39;100.00;64013.03;5389740;26;20044;-84
2024/04/22 07:04:28;;;;;;;31.73;29.92;;;;;;;-143.39;100.00;64013.03;5392447;26;20034;-85
2024/04/22 07:06:57;;;;;;;33.53;31.33;;;;;;;-143.39;100.00;64013.03;5389425;26;20004;-85
2024/04/22 07:09:28;;;;;;;33.35;31.25;;;;;;;-143.39;100.00;64013.03;5391937;26;20004;-84
2024/04/22 07:12:18;;;;;;;32.65;30.55;;;;;;;-143.39;100.00;64013.03;5389086;26;20015;-85
2024/04/22 07:14:47;;;;;;;32.40;30.30;;;;;;;-143.39;100.00;64013.03;5390076;26;20499;-85
2024/04/22 07:17:24;;;;;;;31.27;29.27;;;;;;;-143.39;100.00;64013.03;5388366;26;20050;-84
2024/04/22 07:20:01;;;;;;;31.23;29.33;;;;;;;-143.39;100.00;64013.03;5389510;26;20000;-84
2024/04/22 07:22:37;;;;;;;29.48;27.58;;;;;;;-143.39;100.00;64013.03;5387852;26;20001;-85
2024/04/22 07:25:07;;;;;;;30.13;28.23;;;;;;;-143.39;100.00;64013.03;5389775;26;20039;-85
2024/04/22 07:27:37;;;;;;;30.25;28.35;;;;;;;-143.39;100.00;64013.03;5386838;26;20019;-85
2024/04/22 07:30:10;;;;;;;28.73;26.92;;;;;;;-143.39;100.00;64013.03;5390605;26;20009;-85
2024/04/22 07:32:40;;;;;;;29.88;28.17;;;;;;;-143.39;100.00;64013.03;5388034;26;20004;-84
2024/04/22 07:35:10;;;;;;;28.45;26.75;;;;;;;-143.39;100.00;64013.03;5389715;26;20012;-84
2024/04/22 07:37:40;;;;;;;27.95;26.25;;;;;;;-143.39;100.00;64013.03;5384971;26;20000;-84
2024/04/22 07:40:16;;;;;;;28.70;27.00;;;;;;;-143.39;100.00;64013.03;5388526;26;20012;-84
2024/04/22 07:42:46;;;;;;;28.05;26.45;;;;;;;-143.39;100.00;64013.03;5387473;26;20000;-84
2024/04/22 07:45:16;;;;;;;29.00;27.30;;;;;;;-143.39;100.00;64013.03;5387577;26;19996;-84
2024/04/22 07:47:43;;;;;;;32.60;28.65;;;;;;;-143.39;100.00;64013.03;5386830;26;20007;-85
2024/04/22 07:50:15;;;;;;;28.05;26.35;;;;;;;-143.39;100.00;64013.03;5387814;26;20044;-84
2024/04/22 07:52:44;;;;;;;28.90;27.10;;;;;;;-143.39;100.00;64013.03;5380759;26;20004;-84
2024/04/22 07:55:16;;;;;;;28.30;26.60;;;;;;;-143.39;100.00;64013.03;5357885;26;20015;-84
2024/04/22 07:57:48;;;;;;;27.10;25.50;;;;;;;-143.39;100.00;64013.03;5380474;26;20008;-82
2024/04/22 08:00:19;;;;;;;;;;;;;;;-143.39;100.00;64013.03;5383061;26;20011;-82
2024/04/22 08:02:47;;;;;;;29.90;28.10;;;;;;;-143.39;100.00;64013.03;5344714;26;19933;-82
2024/04/22 08:05:16;;;;;;;29.35;27.65;;;;;;;-143.39;100.00;64013.03;5346671;26;20007;-82
2024/04/22 08:07:46;;;;;;;29.52;27.90;;;;;;;-143.39;100.00;64013.03;5377360;26;20102;-82
2024/04/22 08:10:15;;;;;;;27.92;26.23;;;;;;;-143.39;100.00;64013.03;5381775;26;20015;-82
2024/04/22 08:12:45;;;;;;;26.80;25.20;;;;;;;-143.39;100.00;64013.03;5379127;26;20004;-82
2024/04/22 08:15:14;;;;;;;26.13;24.52;;;;;;;-143.39;100.00;64013.03;5382042;26;20338;-82
2024/04/22 08:17:42;;;;;;;27.20;25.60;;;;;;;-143.39;100.00;64013.03;5374336;26;20003;-82
2024/04/22 08:20:12;;;;;;;26.92;25.33;;;;;;;-143.39;100.00;64013.03;5380680;26;20081;-82
2024/04/22 08:22:38;;;;;;;26.15;24.45;;;;;;;-143.39;100.00;64013.03;5358991;26;20005;-82
2024/04/22 08:25:07;;;;;;;26.30;24.60;;;;;;;-143.39;100.00;64013.03;5349661;26;20079;-82
2024/04/22 08:27:34;;;;;;;25.98;24.38;;;;;;;-143.39;100.00;64013.03;5379373;26;20000;-81
2024/04/22 08:30:06;;;;;;;25.95;24.25;;;;;;;-143.39;100.00;64013.03;5381994;26;20004;-82
2024/04/22 08:32:35;;;;;;;26.67;25.08;;;;;;;-143.39;100.00;64013.03;5379562;26;20047;-82
2024/04/22 08:35:03;;;;;;;29.08;27.48;;;;;;;-143.39;100.00;64013.03;5378882;26;20069;-82
2024/04/22 08:37:32;;;;;;;27.80;26.25;;;;;;;-143.39;100.00;64013.03;5380624;26;20015;-82
2024/04/22 08:39:58;;;;;;;26.98;25.48;;;;;;;-143.39;100.00;64013.03;5379081;26;20004;-82
2024/04/22 08:42:27;;;;;;;27.35;25.85;;;;;;;-143.39;100.00;64013.03;5380992;26;20004;-82
2024/04/22 08:44:53;;;;;;;27.63;26.13;;;;;;;-143.39;100.00;64013.03;5379171;26;20019;-82
2024/04/22 08:47:25;;;;;;;29.00;27.40;;;;;;;-143.39;100.00;64013.03;5377590;26;20398;-82
2024/04/22 08:49:51;;;;;;;29.08;27.58;;;;;;;-143.39;100.00;64013.03;5344017;26;20456;-82
2024/04/22 08:52:21;;;;;;;27.65;26.15;;;;;;;-143.39;100.00;64013.03;5339527;26;20000;-82
2024/04/22 08:54:47;;;;;;;29.05;27.45;;;;;;;-143.39;100.00;64013.03;5379011;26;20019;-82
2024/04/22 08:57:16;;;;;;;29.75;28.15;;;;;;;-143.39;100.00;64013.03;5381195;26;20000;-82
2024/04/22 08:59:44;;;;;;;28.73;27.13;;;;;;;-143.39;100.00;64013.03;5378763;26;20841;-83
2024/04/22 09:02:16;;;;;;;28.70;27.10;;;;;;;-143.39;100.00;64013.03;5381518;26;20018;-82
2024/04/22 09:04:45;;;;;;;29.08;27.48;;;;;;;-143.39;100.00;64013.03;5379430;26;20000;-82
2024/04/22 09:07:19;;;;;;;28.63;27.02;;;;;;;-143.39;100.00;64013.03;5380997;26;20425;-82
2024/04/22 09:09:45;;;;;;;31.90;29.85;;;;;;;-143.39;100.00;64013.03;5378249;26;20000;-82
2024/04/22 09:12:18;;;;;;;30.48;28.88;;;;;;;-143.39;100.00;64013.03;5379515;26;20154;-82
2024/04/22 09:14:45;;;;;;;30.98;29.38;;;;;;;-143.39;100.00;64013.03;5377775;26;20000;-82
2024/04/22 09:17:18;;;;;;;28.15;26.65;;;;;;;-143.39;100.00;64013.03;5380241;26;20004;-81
2024/04/22 09:19:47;;;;;;;27.85;26.25;;;;;;;-143.39;100.00;64013.03;5378652;26;20000;-82
2024/04/22 09:22:16;;;;;;;29.73;28.10;;;;;;;-143.39;100.00;64013.03;5380375;26;20004;-82
2024/04/22 09:24:43;;;;;;;29.30;27.70;;;;;;;-143.39;100.00;64013.03;5378306;26;20340;-81
2024/04/22 09:27:12;;;;;;;33.38;31.58;;;;;;;-143.39;100.00;64013.03;5379855;26;20022;-82
2024/04/22 09:29:43;;;;;;;30.77;28.98;;;;;;;-143.39;100.00;64013.03;5379268;26;20004;-81
2024/04/22 09:32:14;;;;;;;34.00;32.10;;;;;;;-143.39;100.00;64013.03;5382033;26;20386;-82
2024/04/22 09:34:41;;;;;;;30.60;28.90;;;;;;;-143.39;100.00;64013.03;5378474;26;20027;-82
2024/04/22 09:37:13;;;;;;;29.33;27.63;;;;;;;-143.39;100.00;64013.03;5381213;26;20078;-82
2024/04/22 09:39:45;;;;;;;29.70;28.00;;;;;;;-143.39;100.00;64013.03;5381264;26;20098;-84
2024/04/22 09:42:15;;;;;;;30.42;28.73;;;;;;;-143.39;100.00;64013.03;5383407;26;20008;-83
2024/04/22 09:45:13;;;;;;;30.33;28.63;;;;;;;-143.39;100.00;64013.03;5381551;26;20044;-83
2024/04/22 09:47:43;;;;;;;29.95;28.25;;;;;;;-143.39;100.00;64013.03;5384280;26;20476;-83
2024/04/22 09:50:10;;;;;;;27.95;26.35;;;;;;;-143.39;100.00;64013.03;5379654;26;20019;-83
2024/04/22 09:52:42;;;;;;;29.20;27.50;;;;;;;-143.39;100.00;64013.03;5377887;26;20000;-83
2024/04/22 09:55:08;;;;;;;28.25;26.65;;;;;;;-143.39;100.00;64013.03;5381047;26;20065;-82
2024/04/22 09:57:47;;;;;;;29.33;27.63;;;;;;;-143.39;100.00;64013.03;5382881;26;19997;-83
2024/04/22 10:00:15;;;;;;;29.80;28.10;;;;;;;-143.39;100.00;64013.03;5374429;26;20004;-83
2024/04/22 10:02:49;;;;;;;28.40;26.80;;;;;;;-143.39;100.00;64013.03;5382751;26;20074;-83
2024/04/22 10:05:23;;;;;;;29.05;27.35;;;;;;;-143.39;100.00;64013.03;5380282;26;20331;-82
2024/04/22 10:07:55;;;;;;;25.92;24.33;;;;;;;-143.39;100.00;64013.03;5383622;26;20015;-83
2024/04/22 10:10:21;;;;;;;27.23;25.52;;;;;;;-143.39;100.00;64013.03;5380694;26;20007;-84
2024/04/22 10:12:50;;;;;;;27.15;25.55;;;;;;;-143.39;100.00;64013.03;5382399;26;20073;-82
2024/04/22 10:15:16;;;;;;;28.73;27.13;;;;;;;-143.39;100.00;64013.03;5379800;26;20000;-81
2024/04/22 10:17:47;;;;;;;29.70;28.00;;;;;;;-143.39;100.00;64013.03;5380863;26;20074;-81
2024/04/22 10:20:14;;;;;;;30.15;28.55;;;;;;;-143.39;100.00;64013.03;5378436;26;20099;-80
2024/04/22 10:22:45;;;;;;;24.30;22.80;;;;;;;-143.39;100.00;64013.03;5380875;26;20836;-81
2024/04/22 10:25:18;;;;;;;26.65;25.15;;;;;;;-143.39;100.00;64013.03;5378354;26;20018;-81
2024/04/22 10:27:46;;;;;;;26.75;25.15;;;;;;;-143.39;100.00;64013.03;5380413;26;20495;-81
2024/04/22 10:30:16;;;;;;;28.08;26.40;;;;;;;-143.39;100.00;64013.03;5377786;26;20040;-81
2024/04/22 10:32:48;;;;;;;30.63;28.83;;;;;;;-143.39;100.00;64013.03;5380697;26;20440;-81
2024/04/22 10:35:15;;;;;;;26.77;25.17;;;;;;;-143.39;100.00;64013.03;5377806;26;20452;-81
2024/04/22 10:37:44;;;;;;;27.63;26.02;;;;;;;-143.39;100.00;64013.03;5381167;26;20078;-82
2024/04/22 10:40:10;;;;;;;28.10;26.50;;;;;;;-143.39;100.00;64013.03;5381133;26;20000;-81
2024/04/22 10:42:44;;;;;;;28.50;26.90;;;;;;;-143.39;100.00;64013.03;5383255;26;20019;-82
2024/04/22 10:45:11;;;;;;;27.48;25.88;;;;;;;-143.39;100.00;64013.03;5381440;26;20409;-81
2024/04/22 10:47:40;;;;;;;25.52;24.05;;;;;;;-143.39;100.00;64013.03;5383817;26;20196;-81
2024/04/22 10:50:13;;;;;;;25.48;23.98;;;;;;;-143.39;100.00;64013.03;5381279;26;20008;-81
2024/04/22 10:52:42;;;;;;;30.52;28.83;;;;;;;-143.39;100.00;64013.03;5376528;26;20016;-81
2024/04/22 10:55:09;;;;;;;31.50;29.60;;;;;;;-143.39;100.00;64013.03;5380373;26;20000;-81
2024/04/22 10:57:38;;;;;;;29.25;27.55;;;;;;;-143.39;100.00;64013.03;5383367;26;20019;-81
2024/04/22 11:00:08;;;;;;;31.80;29.90;;;;;;;-143.39;100.00;64013.03;5380329;26;20000;-82
2024/04/22 11:02:45;;;;;;;30.10;28.40;;;;;;;-143.39;100.00;64013.03;5383106;26;20019;-82
2024/04/22 11:05:12;;;;;;;29.35;27.65;;;;;;;-143.39;100.00;64013.03;5380520;26;20050;-82
2024/04/22 11:07:41;;;;;;;29.77;27.98;;;;;;;-143.39;100.00;64013.03;5384227;26;20090;-82
2024/04/22 11:10:10;;;;;;;31.58;29.70;;;;;;;-143.39;100.00;64013.03;5380914;26;20004;-81